createdAt,value
2018-06-12T00:01:29.895Z,81.50
2018-06-12T00:03:58.796Z,81.90
2018-06-12T00:06:27.430Z,82.20
2018-06-12T00:11:25.231Z,82.40
2018-06-12T00:13:53.723Z,82.60
2018-06-12T00:16:22.310Z,82.50
2018-06-12T00:18:50.836Z,82.10
2018-06-12T00:21:19.402Z,82.10
2018-06-12T00:23:47.955Z,82.10
2018-06-12T00:26:16.477Z,81.70
2018-06-12T00:28:45.023Z,81.80
2018-06-12T00:31:13.548Z,81.70
2018-06-12T00:33:42.110Z,81.60
2018-06-12T00:36:11.280Z,81.70
2018-06-12T00:38:39.823Z,81.90
2018-06-12T00:43:36.596Z,82.00
2018-06-12T00:48:33.388Z,81.90
2018-06-12T00:51:01.927Z,82.10
2018-06-12T00:55:58.710Z,82.40
2018-06-12T00:58:28.106Z,82.30
2018-06-12T01:00:57.637Z,82.50
2018-06-12T01:03:27.198Z,82.30
2018-06-12T01:05:56.475Z,82.40
2018-06-12T01:08:25.552Z,82.30
2018-06-12T01:10:54.081Z,82.10
2018-06-12T01:13:22.632Z,82.00
2018-06-12T01:15:51.128Z,82.10
2018-06-12T01:23:16.165Z,82.50
2018-06-12T01:28:12.869Z,82.60
2018-06-12T01:30:41.416Z,82.80
2018-06-12T01:33:09.910Z,82.70
2018-06-12T01:35:38.463Z,82.90
2018-06-12T01:40:35.243Z,83.20
2018-06-12T01:43:03.792Z,83.50
2018-06-12T01:45:32.333Z,83.60
2018-06-12T01:48:00.872Z,83.90
2018-06-12T01:52:57.625Z,83.60
2018-06-12T01:55:27.248Z,83.70
2018-06-12T01:57:56.520Z,84.00
2018-06-12T02:00:25.791Z,84.00
2018-06-12T02:02:54.419Z,84.00
2018-06-12T02:07:51.188Z,83.90
2018-06-12T02:10:19.692Z,84.10
2018-06-12T02:12:48.213Z,84.40
2018-06-12T02:15:16.763Z,83.90
2018-06-12T02:17:45.269Z,83.80
2018-06-12T02:20:13.805Z,83.90
2018-06-12T02:22:42.303Z,83.80
2018-06-12T02:25:10.960Z,83.80
2018-06-12T02:27:39.499Z,83.90
2018-06-12T02:30:08.049Z,84.40
2018-06-12T02:32:36.596Z,84.10
2018-06-12T02:40:01.615Z,84.70
2018-06-12T02:42:30.353Z,84.80
2018-06-12T02:44:58.907Z,84.70
2018-06-12T02:52:24.811Z,85.00
2018-06-12T02:54:53.324Z,85.10
2018-06-12T02:57:21.857Z,85.20
2018-06-12T02:59:50.392Z,85.20
2018-06-12T03:02:18.954Z,85.10
2018-06-12T03:04:47.489Z,85.60
2018-06-12T03:07:16.061Z,85.40
2018-06-12T03:09:44.571Z,85.50
2018-06-12T03:12:13.054Z,85.90
2018-06-12T03:14:41.582Z,85.80
2018-06-12T03:17:10.129Z,85.70
2018-06-12T03:19:38.697Z,85.80
2018-06-12T03:22:07.247Z,85.80
2018-06-12T03:27:04.444Z,86.60
2018-06-12T03:29:33.495Z,87.40
2018-06-12T03:34:31.494Z,87.10
2018-06-12T03:39:29.426Z,87.50
2018-06-12T03:41:58.845Z,87.20
2018-06-12T03:44:28.375Z,87.10
2018-06-12T03:49:26.342Z,86.50
2018-06-12T03:51:54.871Z,85.70
2018-06-12T03:54:23.463Z,85.20
2018-06-12T03:56:52.012Z,85.40
2018-06-12T04:01:48.760Z,85.70
2018-06-12T04:04:17.330Z,85.40
2018-06-12T04:06:45.810Z,85.80
2018-06-12T04:09:14.355Z,85.20
2018-06-12T04:11:42.874Z,85.10
2018-06-12T04:14:11.474Z,84.80
2018-06-12T04:16:39.949Z,84.80
2018-06-12T04:19:08.471Z,85.30
2018-06-12T04:21:37.007Z,84.60
2018-06-12T04:24:05.583Z,84.90
2018-06-12T04:26:34.144Z,84.20
2018-06-12T04:29:02.683Z,84.20
2018-06-12T04:33:59.428Z,84.20
2018-06-12T04:38:57.335Z,84.10
2018-06-12T04:41:26.367Z,84.20
2018-06-12T04:43:54.916Z,84.20
2018-06-12T04:46:23.454Z,84.20
2018-06-12T04:48:53.082Z,84.30
2018-06-12T04:53:49.885Z,85.00
2018-06-12T04:56:18.413Z,85.10
2018-06-12T05:01:15.425Z,84.40
2018-06-12T05:03:43.940Z,84.10
2018-06-12T05:06:13.465Z,84.00
2018-06-12T05:13:38.528Z,85.00
2018-06-12T05:16:07.024Z,84.20
2018-06-12T05:18:35.561Z,84.00
2018-06-12T05:21:04.052Z,84.00
2018-06-12T05:26:07.477Z,82.70
2018-06-12T05:28:36.006Z,81.90
2018-06-12T05:31:04.603Z,80.20
2018-06-12T05:33:33.122Z,80.40
2018-06-12T05:36:01.675Z,81.10
2018-06-12T05:38:30.160Z,81.10
2018-06-12T05:40:59.387Z,82.00
2018-06-12T05:43:28.986Z,81.50
2018-06-12T05:45:58.737Z,80.20
2018-06-12T05:48:29.192Z,79.20
2018-06-12T05:50:57.807Z,79.20
2018-06-12T05:53:27.725Z,78.70
2018-06-12T05:55:57.803Z,78.40
2018-06-12T05:58:27.295Z,78.00
2018-06-12T06:00:57.038Z,76.80
2018-06-12T06:05:55.496Z,78.00
2018-06-12T06:08:24.108Z,77.50
2018-06-12T06:10:52.627Z,77.10
2018-06-12T06:13:21.223Z,77.70
2018-06-12T06:15:49.792Z,78.30
2018-06-12T06:18:18.547Z,76.60
2018-06-12T06:28:12.226Z,76.60
2018-06-12T06:30:40.867Z,76.70
2018-06-12T06:33:09.500Z,75.90
2018-06-12T06:35:38.071Z,75.70
2018-06-12T06:38:06.764Z,76.30
2018-06-12T06:40:35.323Z,73.30
2018-06-12T06:43:03.947Z,74.20
2018-06-12T06:45:32.533Z,75.40
2018-06-12T06:48:01.282Z,73.60
2018-06-12T06:50:31.286Z,73.50
2018-06-12T06:53:00.603Z,72.90
2018-06-12T06:55:29.839Z,73.10
2018-06-12T06:57:58.411Z,72.70
2018-06-12T07:00:27.384Z,73.70
2018-06-12T07:02:55.946Z,72.50
2018-06-12T07:05:24.602Z,71.50
2018-06-12T07:07:53.281Z,72.00
2018-06-12T07:10:21.934Z,71.80
2018-06-12T07:12:50.535Z,70.90
2018-06-12T07:15:20.845Z,70.90
2018-06-12T07:20:30.908Z,70.20
2018-06-12T07:22:59.887Z,69.80
2018-06-12T07:25:30.135Z,69.20
2018-06-12T07:27:59.918Z,67.60
2018-06-12T07:30:28.976Z,68.00
2018-06-12T07:32:58.674Z,69.80
2018-06-12T07:35:27.559Z,68.90
2018-06-12T07:37:58.016Z,67.10
2018-06-12T07:40:27.041Z,67.80
2018-06-12T07:42:55.840Z,66.50
2018-06-12T07:45:24.666Z,67.20
2018-06-12T07:47:53.639Z,66.20
2018-06-12T07:50:22.357Z,65.80
2018-06-12T07:55:19.731Z,65.80
2018-06-12T07:57:48.481Z,66.30
2018-06-12T08:02:53.847Z,66.60
2018-06-12T08:05:22.575Z,66.50
2018-06-12T08:07:51.379Z,67.10
2018-06-12T08:10:20.232Z,68.50
2018-06-12T08:15:17.756Z,66.20
2018-06-12T08:17:46.923Z,67.10
2018-06-12T08:22:45.449Z,67.40
2018-06-12T08:25:14.313Z,68.80
2018-06-12T08:27:43.510Z,67.30
2018-06-12T08:30:12.509Z,67.90
2018-06-12T08:32:41.248Z,67.00
2018-06-12T08:35:10.299Z,65.30
2018-06-12T08:37:39.637Z,65.00
2018-06-12T08:40:08.593Z,64.40
2018-06-12T08:42:37.490Z,65.30
2018-06-12T08:45:06.453Z,65.30
2018-06-12T08:47:35.529Z,66.50
2018-06-12T08:50:05.323Z,68.30
2018-06-12T08:52:34.385Z,67.40
2018-06-12T08:55:03.746Z,66.40
2018-06-12T09:00:01.125Z,66.60
2018-06-12T09:02:30.269Z,66.50
2018-06-12T09:05:00.508Z,67.80
2018-06-12T09:07:29.625Z,64.80
2018-06-12T09:12:27.022Z,63.10
2018-06-12T09:14:55.766Z,62.40
2018-06-12T09:17:24.801Z,63.90
2018-06-12T09:19:53.915Z,64.50
2018-06-12T09:22:22.754Z,60.50
2018-06-12T09:24:51.792Z,59.80
2018-06-12T09:27:20.695Z,59.80
2018-06-12T09:29:49.461Z,58.40
2018-06-12T09:32:18.317Z,59.70
2018-06-12T09:34:47.446Z,59.50
2018-06-12T09:37:16.190Z,60.00
2018-06-12T09:39:44.937Z,60.30
2018-06-12T09:42:13.915Z,61.70
2018-06-12T09:44:42.680Z,61.60
2018-06-12T09:47:11.721Z,61.00
2018-06-12T09:49:40.557Z,60.50
2018-06-12T09:54:38.069Z,62.30
2018-06-12T09:57:07.105Z,61.40
2018-06-12T09:59:35.762Z,61.10
2018-06-12T10:02:04.781Z,61.00
2018-06-12T10:04:33.890Z,64.30
2018-06-12T10:07:02.761Z,62.20
2018-06-12T10:09:31.708Z,59.80
2018-06-12T10:12:00.826Z,59.00
2018-06-12T10:14:30.959Z,58.90
2018-06-12T10:19:28.973Z,60.10
2018-06-12T10:21:58.071Z,58.40
2018-06-12T10:24:26.977Z,60.60
2018-06-12T10:29:24.634Z,59.50
2018-06-12T10:31:53.398Z,59.30
2018-06-12T10:34:22.179Z,61.70
2018-06-12T10:36:51.303Z,61.70
2018-06-12T10:39:20.169Z,61.60
2018-06-12T10:41:49.000Z,61.40
2018-06-12T10:46:47.243Z,63.60
2018-06-12T10:49:16.109Z,62.00
2018-06-12T10:51:44.870Z,61.10
2018-06-12T10:59:10.748Z,59.70
2018-06-12T11:01:39.746Z,60.70
2018-06-12T11:04:08.709Z,61.40
2018-06-12T11:09:07.213Z,62.80
2018-06-12T11:11:36.867Z,61.90
2018-06-12T11:14:05.685Z,61.20
2018-06-12T11:16:34.686Z,62.70
2018-06-12T11:19:03.641Z,59.80
2018-06-12T11:21:33.128Z,60.90
2018-06-12T11:24:01.998Z,60.00
2018-06-12T11:26:31.866Z,59.80
2018-06-12T11:29:01.792Z,61.40
2018-06-12T11:31:31.377Z,58.60
2018-06-12T11:34:00.921Z,60.40
2018-06-12T11:38:58.468Z,58.90
2018-06-12T11:41:27.092Z,59.70
2018-06-12T11:43:55.657Z,58.90
2018-06-12T11:48:52.500Z,58.40
2018-06-12T11:51:21.010Z,59.20
2018-06-12T11:56:17.867Z,61.00
2018-06-12T12:03:42.996Z,58.90
2018-06-12T12:08:39.850Z,59.50
2018-06-12T12:11:08.403Z,58.90
2018-06-12T12:13:36.957Z,58.50
2018-06-12T12:16:05.595Z,58.80
2018-06-12T12:18:34.134Z,59.20
2018-06-12T12:21:02.863Z,59.20
2018-06-12T12:23:31.419Z,58.60
2018-06-12T12:26:00.959Z,57.80
2018-06-12T12:30:59.881Z,57.60
2018-06-12T12:33:29.060Z,58.10
2018-06-12T12:35:57.596Z,59.10
2018-06-12T12:38:26.106Z,58.50
2018-06-12T12:40:54.684Z,57.60
2018-06-12T12:43:23.328Z,57.30
2018-06-12T12:45:51.868Z,58.10
2018-06-12T12:48:20.428Z,58.50
2018-06-12T12:50:48.983Z,58.30
2018-06-12T12:53:17.535Z,57.10
2018-06-12T12:55:46.177Z,56.40
2018-06-12T12:58:14.747Z,56.90
2018-06-12T13:00:43.261Z,56.10
2018-06-12T13:03:11.832Z,56.40
2018-06-12T13:05:40.343Z,56.50
2018-06-12T13:10:37.163Z,56.70
2018-06-12T13:13:05.986Z,56.20
2018-06-12T13:18:02.845Z,55.00
2018-06-12T13:20:31.407Z,53.60
2018-06-12T13:23:01.370Z,54.40
2018-06-12T13:25:30.608Z,53.80
2018-06-12T13:27:59.896Z,53.40
2018-06-12T13:30:29.137Z,53.30
2018-06-12T13:32:57.678Z,52.80
2018-06-12T13:35:26.399Z,53.20
2018-06-12T13:37:54.988Z,52.40
2018-06-12T13:40:23.491Z,52.40
2018-06-12T13:42:52.070Z,52.50
2018-06-12T13:47:48.839Z,54.30
2018-06-12T13:50:17.426Z,53.40
2018-06-12T13:52:45.918Z,53.00
2018-06-12T13:55:14.495Z,53.20
2018-06-12T13:57:43.018Z,54.10
2018-06-12T14:00:11.587Z,53.80
2018-06-12T14:02:40.217Z,54.30
2018-06-12T14:07:37.069Z,53.30
2018-06-12T14:10:05.568Z,53.10
2018-06-12T14:12:34.084Z,53.30
2018-06-12T14:15:02.669Z,54.70
2018-06-12T14:17:32.439Z,52.80
2018-06-12T14:27:27.465Z,52.40
2018-06-12T14:29:56.002Z,54.20
2018-06-12T14:32:24.613Z,52.40
2018-06-12T14:34:53.131Z,52.70
2018-06-12T14:37:21.878Z,53.40
2018-06-12T14:39:50.382Z,52.60
2018-06-12T14:42:18.921Z,51.60
2018-06-12T14:44:47.459Z,51.80
2018-06-12T14:47:16.031Z,52.30
2018-06-12T14:49:44.592Z,52.20
2018-06-12T14:52:13.172Z,52.80
2018-06-12T14:54:41.686Z,53.50
2018-06-12T15:02:06.787Z,53.30
2018-06-12T15:04:35.293Z,53.40
2018-06-12T15:07:03.903Z,52.80
2018-06-12T15:09:32.429Z,53.00
2018-06-12T15:12:01.964Z,53.90
2018-06-12T15:14:31.945Z,55.00
2018-06-12T15:17:02.121Z,54.60
2018-06-12T15:19:31.558Z,54.30
2018-06-12T15:22:01.187Z,52.50
2018-06-12T15:24:29.832Z,52.20
2018-06-12T15:26:58.867Z,51.90
2018-06-12T15:29:27.430Z,52.30
2018-06-12T15:31:55.923Z,52.00
2018-06-12T15:34:24.942Z,53.00
2018-06-12T15:36:53.487Z,52.80
2018-06-12T15:39:22.108Z,52.40
2018-06-12T15:41:50.657Z,50.20
2018-06-12T15:44:19.152Z,51.00
2018-06-12T15:46:47.732Z,51.40
2018-06-12T15:49:17.259Z,51.00
2018-06-12T15:51:45.810Z,52.00
2018-06-12T15:54:14.329Z,52.40
2018-06-12T15:56:42.888Z,51.20
2018-06-12T15:59:11.390Z,51.00
2018-06-12T16:01:39.951Z,52.10
2018-06-12T16:04:08.530Z,52.30
2018-06-12T16:06:37.134Z,52.60
2018-06-12T16:09:08.281Z,52.20
2018-06-12T16:11:36.912Z,52.30
2018-06-12T16:14:05.415Z,52.80
2018-06-12T16:16:33.965Z,52.50
2018-06-12T16:19:02.462Z,52.00
2018-06-12T16:21:32.166Z,53.10
2018-06-12T16:24:01.578Z,53.20
2018-06-12T16:26:31.208Z,53.60
2018-06-12T16:28:59.780Z,53.30
2018-06-12T16:31:28.874Z,53.30
2018-06-12T16:33:57.457Z,53.80
2018-06-12T16:36:25.988Z,53.90
2018-06-12T16:38:54.540Z,52.70
2018-06-12T16:41:23.082Z,52.20
2018-06-12T16:43:51.650Z,53.50
2018-06-12T16:48:48.515Z,53.60
2018-06-12T16:51:17.028Z,54.00
2018-06-12T16:53:45.579Z,53.70
2018-06-12T17:01:10.781Z,53.20
2018-06-12T17:03:39.339Z,53.10
2018-06-12T17:06:08.019Z,53.50
2018-06-12T17:08:36.610Z,53.20
2018-06-12T17:11:05.177Z,53.90
2018-06-12T17:13:33.738Z,54.60
2018-06-12T17:16:02.320Z,54.40
2018-06-12T17:18:31.972Z,55.30
2018-06-12T17:21:01.404Z,55.60
2018-06-12T17:28:27.750Z,57.00
2018-06-12T17:30:56.266Z,57.40
2018-06-12T17:35:53.041Z,57.50
2018-06-12T17:38:21.636Z,57.20
2018-06-12T17:40:50.201Z,57.40
2018-06-12T17:43:18.709Z,57.00
2018-06-12T17:45:47.261Z,56.90
2018-06-12T17:48:15.804Z,57.50
2018-06-12T17:50:44.374Z,58.00
2018-06-12T17:53:12.900Z,58.10
2018-06-12T17:58:10.388Z,58.80
2018-06-12T18:00:39.452Z,58.80
2018-06-12T18:03:07.975Z,58.70
2018-06-12T18:05:36.591Z,58.70
2018-06-12T18:08:05.449Z,59.10
2018-06-12T18:10:33.964Z,59.60
2018-06-12T18:13:04.268Z,59.50
2018-06-12T18:15:32.814Z,59.90
2018-06-12T18:18:02.433Z,60.00
2018-06-12T18:20:32.319Z,60.30
2018-06-12T18:25:31.450Z,61.40
2018-06-12T18:28:00.781Z,61.00
2018-06-12T18:30:29.954Z,61.40
2018-06-12T18:32:58.513Z,61.70
2018-06-12T18:35:27.068Z,61.70
2018-06-12T18:37:55.582Z,62.20
2018-06-12T18:40:24.265Z,62.20
2018-06-12T18:45:21.790Z,62.20
2018-06-12T18:47:50.367Z,62.10
2018-06-12T18:50:19.049Z,62.60
2018-06-12T18:52:47.591Z,63.00
2018-06-12T18:55:16.181Z,63.00
2018-06-12T19:00:13.412Z,63.70
2018-06-12T19:02:42.127Z,63.80
2018-06-12T19:07:39.496Z,64.10
2018-06-12T19:12:37.176Z,64.90
2018-06-12T19:20:03.319Z,65.30
2018-06-12T19:30:00.003Z,66.20
2018-06-12T19:32:29.974Z,66.30
2018-06-12T19:34:59.958Z,66.20
2018-06-12T19:39:58.020Z,66.00
2018-06-12T19:42:27.726Z,67.00
2018-06-12T19:47:24.702Z,67.00
2018-06-12T19:49:53.370Z,67.20
2018-06-12T19:52:21.934Z,67.10
2018-06-12T19:54:50.817Z,67.60
2018-06-12T19:57:19.380Z,67.30
2018-06-12T19:59:48.339Z,67.20
2018-06-12T20:04:45.294Z,66.80
2018-06-12T20:07:13.936Z,67.30
2018-06-12T20:09:42.555Z,67.60
2018-06-12T20:12:11.164Z,68.50
2018-06-12T20:17:07.951Z,68.40
2018-06-12T20:19:36.531Z,68.20
2018-06-12T20:22:05.050Z,68.60
2018-06-12T20:24:33.605Z,69.00
2018-06-12T20:27:02.115Z,69.00
2018-06-12T20:29:31.381Z,69.20
2018-06-12T20:32:00.673Z,69.50
2018-06-12T20:34:30.468Z,70.30
2018-06-12T20:41:56.555Z,69.20
2018-06-12T20:44:25.056Z,69.80
2018-06-12T20:46:53.580Z,70.00
2018-06-12T20:51:50.412Z,69.50
2018-06-12T20:54:18.924Z,69.60
2018-06-12T21:01:43.972Z,69.60
2018-06-12T21:04:12.544Z,69.60
2018-06-12T21:06:41.145Z,69.80
2018-06-12T21:09:09.654Z,69.80
2018-06-12T21:11:38.166Z,69.40
2018-06-12T21:14:06.722Z,69.60
2018-06-12T21:16:35.224Z,69.70
2018-06-12T21:19:03.744Z,69.80
2018-06-12T21:21:32.302Z,69.90
2018-06-12T21:24:01.480Z,69.80
2018-06-12T21:26:30.920Z,70.00
2018-06-12T21:28:59.959Z,70.10
2018-06-12T21:31:29.032Z,70.20
2018-06-12T21:33:57.495Z,70.10
2018-06-12T21:36:26.064Z,70.00
2018-06-12T21:41:22.873Z,70.00
2018-06-12T21:43:51.377Z,69.60
2018-06-12T21:46:19.951Z,69.50
2018-06-12T21:48:48.482Z,69.40
2018-06-12T21:53:45.427Z,69.20
2018-06-12T21:58:42.228Z,68.90
2018-06-12T22:01:10.769Z,68.90
2018-06-12T22:06:07.732Z,68.40
2018-06-12T22:08:36.354Z,68.60
2018-06-12T22:11:05.005Z,68.70
2018-06-12T22:13:33.677Z,68.40
2018-06-12T22:16:02.178Z,68.40
2018-06-12T22:20:59.779Z,68.70
2018-06-12T22:23:28.404Z,68.70
2018-06-12T22:25:56.948Z,68.40
2018-06-12T22:28:25.456Z,68.60
2018-06-12T22:30:54.054Z,68.60
2018-06-12T22:33:22.656Z,68.50
2018-06-12T22:38:19.475Z,69.60
2018-06-12T22:40:47.982Z,68.70
2018-06-12T22:43:16.505Z,68.80
2018-06-12T22:45:45.058Z,68.60
2018-06-12T22:53:10.089Z,69.80
2018-06-12T22:55:38.693Z,69.60
2018-06-12T22:58:07.226Z,70.20
2018-06-12T23:00:35.763Z,70.30
2018-06-12T23:05:32.549Z,71.10
2018-06-12T23:08:01.663Z,71.50
2018-06-12T23:10:31.204Z,71.80
2018-06-12T23:15:30.169Z,71.30
2018-06-12T23:17:59.920Z,71.10
2018-06-12T23:28:01.051Z,71.70
2018-06-12T23:30:29.590Z,71.90
2018-06-12T23:32:58.169Z,72.00
2018-06-12T23:35:27.547Z,71.90
2018-06-12T23:37:56.093Z,72.10
2018-06-12T23:40:24.611Z,72.30
2018-06-12T23:42:53.153Z,72.60
2018-06-12T23:45:21.695Z,72.80
2018-06-12T23:47:50.220Z,73.00
2018-06-12T23:50:18.737Z,73.30
2018-06-12T23:52:47.309Z,73.60
2018-06-12T23:55:15.871Z,73.80
2018-06-12T23:57:44.363Z,74.10
